الصفحة الرئيسية
METAR-TAF:

METAR-TAF

مطار :

NWS Office

بونبي, مايكرونيزيا

دائرة عرض: 06-58N, خط طول: 158-13E, ارتفاع: 39 متر

مراقبة الطقس الحالي

تاريخ ووقت الإصدار 1ساعة و 34 دقيقة قبل الساعة 04:52UTC
ريح 4 عقدة من الشرق/الجنوب الشرقي
درجة الحرارة 30°درجة مئوية
الرطوبة 75%
ضغط 1008 hPa
الرؤية: 24.1 كم
غيوم مفككة على ارتفاع 1800 قدم
ملبد بالغيوم على ارتفاع 30000 قدم

METAR: PTTP 060452Z 11004KT 15SM BKN018 OVC300 30/25 A2978 RMK SLP083 T03030254

زمن: 17:26 (06:26 UTC)


TAF: مفقودة

أرصاد الطقس والتوقعات من أكثر من 4000 مطار (تقارير الطقس للمطار METAR والتنبؤ بالطقس بالمطارTAF).

المحطات المتاحة هي النقط الصفراء والحمراء على الخريطة.

حرك المؤشر فوق النقطة لمعرفة اسم المحطة.

ثم انقر لمعرفة أرصاد وتوقعات الطقس.

لتغيير الخارطة: اضغط على الأزرار الخضراء مع رمز الصليب الأسود للتكبير. على الزر الأخضر مع شرطة للتصغير، أو على الأسهم الخضراء للخرائط المجاورة.


METAR-TAF: